sensor_id;sensor_type;location;lat;lon;timestamp;temperature;humidity
17807;DHT22;9027;48.938;9.182;2022-10-17T00:00:32;15.20;99.90
17807;DHT22;9027;48.938;9.182;2022-10-17T00:02:04;15.20;99.90
17807;DHT22;9027;48.938;9.182;2022-10-17T00:03:37;15.20;99.90
17807;DHT22;9027;48.938;9.182;2022-10-17T00:05:09;15.10;99.90
17807;DHT22;9027;48.938;9.182;2022-10-17T00:06:41;15.10;99.90
17807;DHT22;9027;48.938;9.182;2022-10-17T00:08:14;15.10;99.90
17807;DHT22;9027;48.938;9.182;2022-10-17T00:09:46;15.00;99.90
17807;DHT22;9027;48.938;9.182;2022-10-17T00:11:20;15.00;99.90
17807;DHT22;9027;48.938;9.182;2022-10-17T00:12:52;14.90;99.90
17807;DHT22;9027;48.938;9.182;2022-10-17T00:14:23;14.90;99.90
17807;DHT22;9027;48.938;9.182;2022-10-17T00:15:56;14.90;99.90
17807;DHT22;9027;48.938;9.182;2022-10-17T00:17:29;15.00;99.90
17807;DHT22;9027;48.938;9.182;2022-10-17T00:19:00;15.00;99.90
17807;DHT22;9027;48.938;9.182;2022-10-17T00:20:33;15.00;99.90
17807;DHT22;9027;48.938;9.182;2022-10-17T00:22:05;15.00;99.90
17807;DHT22;9027;48.938;9.182;2022-10-17T00:23:37;15.10;99.90
17807;DHT22;9027;48.938;9.182;2022-10-17T00:25:10;15.00;99.90
17807;DHT22;9027;48.938;9.182;2022-10-17T00:26:42;15.00;99.90
17807;DHT22;9027;48.938;9.182;2022-10-17T00:28:14;15.00;99.90
17807;DHT22;9027;48.938;9.182;2022-10-17T00:29:47;14.90;99.90
17807;DHT22;9027;48.938;9.182;2022-10-17T00:31:21;14.80;99.90
17807;DHT22;9027;48.938;9.182;2022-10-17T00:32:54;14.70;99.90
17807;DHT22;9027;48.938;9.182;2022-10-17T00:34:28;14.70;99.90
17807;DHT22;9027;48.938;9.182;2022-10-17T00:36:05;14.80;99.90
17807;DHT22;9027;48.938;9.182;2022-10-17T00:37:39;14.70;99.90
17807;DHT22;9027;48.938;9.182;2022-10-17T00:39:10;14.60;99.90
17807;DHT22;9027;48.938;9.182;2022-10-17T00:40:42;14.70;99.90
17807;DHT22;9027;48.938;9.182;2022-10-17T00:42:15;14.70;99.90
17807;DHT22;9027;48.938;9.182;2022-10-17T00:43:56;14.70;99.90
17807;DHT22;9027;48.938;9.182;2022-10-17T00:45:29;14.80;99.90
17807;DHT22;9027;48.938;9.182;2022-10-17T00:47:04;14.80;99.90
17807;DHT22;9027;48.938;9.182;2022-10-17T00:48:36;14.80;99.90
17807;DHT22;9027;48.938;9.182;2022-10-17T00:50:09;14.80;99.90
17807;DHT22;9027;48.938;9.182;2022-10-17T00:51:44;14.70;99.90
17807;DHT22;9027;48.938;9.182;2022-10-17T00:53:17;14.70;99.90
17807;DHT22;9027;48.938;9.182;2022-10-17T00:54:53;14.60;99.90
17807;DHT22;9027;48.938;9.182;2022-10-17T00:56:25;14.60;99.90
17807;DHT22;9027;48.938;9.182;2022-10-17T00:57:59;14.60;99.90
17807;DHT22;9027;48.938;9.182;2022-10-17T00:59:33;14.60;99.90
17807;DHT22;9027;48.938;9.182;2022-10-17T01:01:06;14.60;99.90
17807;DHT22;9027;48.938;9.182;2022-10-17T01:02:38;14.60;99.90
17807;DHT22;9027;48.938;9.182;2022-10-17T01:04:12;14.60;99.90
17807;DHT22;9027;48.938;9.182;2022-10-17T01:05:43;14.60;99.90
17807;DHT22;9027;48.938;9.182;2022-10-17T01:07:16;14.60;99.90
17807;DHT22;9027;48.938;9.182;2022-10-17T01:08:47;14.60;99.90
17807;DHT22;9027;48.938;9.182;2022-10-17T01:10:20;14.60;99.90
17807;DHT22;9027;48.938;9.182;2022-10-17T01:12:00;14.50;99.90
17807;DHT22;9027;48.938;9.182;2022-10-17T01:13:40;14.50;99.90
17807;DHT22;9027;48.938;9.182;2022-10-17T01:15:20;14.40;99.90
17807;DHT22;9027;48.938;9.182;2022-10-17T01:17:00;14.40;99.90
17807;DHT22;9027;48.938;9.182;2022-10-17T01:18:50;14.40;99.90
17807;DHT22;9027;48.938;9.182;2022-10-17T01:20:53;14.40;99.90
17807;DHT22;9027;48.938;9.182;2022-10-17T01:22:36;14.40;99.90
17807;DHT22;9027;48.938;9.182;2022-10-17T01:24:28;14.50;99.90
17807;DHT22;9027;48.938;9.182;2022-10-17T01:26:15;14.40;99.90
17807;DHT22;9027;48.938;9.182;2022-10-17T01:28:02;14.40;99.90
17807;DHT22;9027;48.938;9.182;2022-10-17T01:29:50;14.40;99.90
17807;DHT22;9027;48.938;9.182;2022-10-17T01:31:25;14.40;99.90
17807;DHT22;9027;48.938;9.182;2022-10-17T01:33:05;14.40;99.90
17807;DHT22;9027;48.938;9.182;2022-10-17T01:34:44;14.40;99.90
17807;DHT22;9027;48.938;9.182;2022-10-17T01:36:30;14.40;99.90
17807;DHT22;9027;48.938;9.182;2022-10-17T01:38:09;14.40;99.90
17807;DHT22;9027;48.938;9.182;2022-10-17T01:39:45;14.40;99.90
17807;DHT22;9027;48.938;9.182;2022-10-17T01:41:24;14.40;99.90
17807;DHT22;9027;48.938;9.182;2022-10-17T01:43:04;14.30;99.90
17807;DHT22;9027;48.938;9.182;2022-10-17T01:44:42;14.30;99.90
17807;DHT22;9027;48.938;9.182;2022-10-17T01:46:22;14.30;99.90
17807;DHT22;9027;48.938;9.182;2022-10-17T01:47:58;14.30;99.90
17807;DHT22;9027;48.938;9.182;2022-10-17T01:49:32;14.30;99.90
17807;DHT22;9027;48.938;9.182;2022-10-17T01:51:08;14.30;99.90
17807;DHT22;9027;48.938;9.182;2022-10-17T01:52:44;14.30;99.90
17807;DHT22;9027;48.938;9.182;2022-10-17T01:54:22;14.20;99.90
17807;DHT22;9027;48.938;9.182;2022-10-17T01:55:59;14.20;99.90
17807;DHT22;9027;48.938;9.182;2022-10-17T01:57:33;14.20;99.90
17807;DHT22;9027;48.938;9.182;2022-10-17T01:59:11;14.20;99.90
17807;DHT22;9027;48.938;9.182;2022-10-17T02:00:44;14.20;99.90
17807;DHT22;9027;48.938;9.182;2022-10-17T02:02:19;14.10;99.90
17807;DHT22;9027;48.938;9.182;2022-10-17T02:03:53;14.10;99.90
17807;DHT22;9027;48.938;9.182;2022-10-17T02:05:29;14.10;99.90
17807;DHT22;9027;48.938;9.182;2022-10-17T02:07:06;14.10;99.90
17807;DHT22;9027;48.938;9.182;2022-10-17T02:08:42;14.10;99.90
17807;DHT22;9027;48.938;9.182;2022-10-17T02:10:20;14.10;99.90
17807;DHT22;9027;48.938;9.182;2022-10-17T02:12:09;14.10;99.90
17807;DHT22;9027;48.938;9.182;2022-10-17T02:14:06;14.10;99.90
17807;DHT22;9027;48.938;9.182;2022-10-17T02:15:58;14.10;99.90
17807;DHT22;9027;48.938;9.182;2022-10-17T02:17:41;14.00;99.90
17807;DHT22;9027;48.938;9.182;2022-10-17T02:19:37;14.10;99.90
17807;DHT22;9027;48.938;9.182;2022-10-17T02:21:19;14.10;99.90
17807;DHT22;9027;48.938;9.182;2022-10-17T02:22:58;14.00;99.90
17807;DHT22;9027;48.938;9.182;2022-10-17T02:24:39;14.00;99.90
17807;DHT22;9027;48.938;9.182;2022-10-17T02:26:23;14.00;99.90
17807;DHT22;9027;48.938;9.182;2022-10-17T02:27:59;14.00;99.90
17807;DHT22;9027;48.938;9.182;2022-10-17T02:29:44;13.90;99.90
17807;DHT22;9027;48.938;9.182;2022-10-17T02:31:21;13.90;99.90
17807;DHT22;9027;48.938;9.182;2022-10-17T02:32:56;13.90;99.90
17807;DHT22;9027;48.938;9.182;2022-10-17T02:34:33;13.90;99.90
17807;DHT22;9027;48.938;9.182;2022-10-17T02:36:11;13.90;99.90
17807;DHT22;9027;48.938;9.182;2022-10-17T02:37:46;13.90;99.90
17807;DHT22;9027;48.938;9.182;2022-10-17T02:39:19;13.90;99.90
17807;DHT22;9027;48.938;9.182;2022-10-17T02:40:53;13.90;99.90
17807;DHT22;9027;48.938;9.182;2022-10-17T02:42:26;13.90;99.90
17807;DHT22;9027;48.938;9.182;2022-10-17T02:44:01;13.80;99.90
17807;DHT22;9027;48.938;9.182;2022-10-17T02:45:34;13.80;99.90
17807;DHT22;9027;48.938;9.182;2022-10-17T02:47:12;13.80;99.90
17807;DHT22;9027;48.938;9.182;2022-10-17T02:48:50;13.80;99.90
17807;DHT22;9027;48.938;9.182;2022-10-17T02:50:27;13.80;99.90
17807;DHT22;9027;48.938;9.182;2022-10-17T02:52:07;13.80;99.90
17807;DHT22;9027;48.938;9.182;2022-10-17T02:53:47;13.70;99.90
17807;DHT22;9027;48.938;9.182;2022-10-17T02:55:26;13.70;99.90
17807;DHT22;9027;48.938;9.182;2022-10-17T02:57:06;13.80;99.90
17807;DHT22;9027;48.938;9.182;2022-10-17T02:58:38;13.80;99.90
17807;DHT22;9027;48.938;9.182;2022-10-17T03:00:13;13.80;99.90
17807;DHT22;9027;48.938;9.182;2022-10-17T03:01:47;13.80;99.90
17807;DHT22;9027;48.938;9.182;2022-10-17T03:03:23;13.70;99.90
17807;DHT22;9027;48.938;9.182;2022-10-17T03:04:55;13.70;99.90
17807;DHT22;9027;48.938;9.182;2022-10-17T03:06:28;13.70;99.90
17807;DHT22;9027;48.938;9.182;2022-10-17T03:07:59;13.70;99.90
17807;DHT22;9027;48.938;9.182;2022-10-17T03:09:30;13.70;99.90
17807;DHT22;9027;48.938;9.182;2022-10-17T03:11:02;13.70;99.90
17807;DHT22;9027;48.938;9.182;2022-10-17T03:12:34;13.70;99.90
17807;DHT22;9027;48.938;9.182;2022-10-17T03:14:06;13.70;99.90
17807;DHT22;9027;48.938;9.182;2022-10-17T03:15:38;13.70;99.90
17807;DHT22;9027;48.938;9.182;2022-10-17T03:17:09;13.70;99.90
17807;DHT22;9027;48.938;9.182;2022-10-17T03:18:41;13.70;99.90
17807;DHT22;9027;48.938;9.182;2022-10-17T03:20:13;13.70;99.90
17807;DHT22;9027;48.938;9.182;2022-10-17T03:21:47;13.70;99.90
17807;DHT22;9027;48.938;9.182;2022-10-17T03:23:19;13.60;99.90
17807;DHT22;9027;48.938;9.182;2022-10-17T03:24:51;13.60;99.90
17807;DHT22;9027;48.938;9.182;2022-10-17T03:26:23;13.70;99.90
17807;DHT22;9027;48.938;9.182;2022-10-17T03:27:57;13.60;99.90
17807;DHT22;9027;48.938;9.182;2022-10-17T03:29:28;13.60;99.90
17807;DHT22;9027;48.938;9.182;2022-10-17T03:31:06;13.60;99.90
17807;DHT22;9027;48.938;9.182;2022-10-17T03:32:38;13.70;99.90
17807;DHT22;9027;48.938;9.182;2022-10-17T03:34:11;13.70;99.90
17807;DHT22;9027;48.938;9.182;2022-10-17T03:35:46;13.70;99.90
17807;DHT22;9027;48.938;9.182;2022-10-17T03:37:18;13.70;99.90
17807;DHT22;9027;48.938;9.182;2022-10-17T03:38:52;13.60;99.90
17807;DHT22;9027;48.938;9.182;2022-10-17T03:40:23;13.60;99.90
17807;DHT22;9027;48.938;9.182;2022-10-17T03:41:56;13.60;99.90
17807;DHT22;9027;48.938;9.182;2022-10-17T03:43:28;13.60;99.90
17807;DHT22;9027;48.938;9.182;2022-10-17T03:44:59;13.60;99.90
17807;DHT22;9027;48.938;9.182;2022-10-17T03:46:31;13.60;99.90
17807;DHT22;9027;48.938;9.182;2022-10-17T03:48:05;13.60;99.90
17807;DHT22;9027;48.938;9.182;2022-10-17T03:49:36;13.50;99.90
17807;DHT22;9027;48.938;9.182;2022-10-17T03:51:10;13.50;99.90
17807;DHT22;9027;48.938;9.182;2022-10-17T03:52:49;13.50;99.90
17807;DHT22;9027;48.938;9.182;2022-10-17T03:54:21;13.50;99.90
17807;DHT22;9027;48.938;9.182;2022-10-17T03:55:53;13.50;99.90
17807;DHT22;9027;48.938;9.182;2022-10-17T03:57:24;13.50;99.90
17807;DHT22;9027;48.938;9.182;2022-10-17T03:58:56;13.50;99.90
17807;DHT22;9027;48.938;9.182;2022-10-17T04:00:28;13.50;99.90
17807;DHT22;9027;48.938;9.182;2022-10-17T04:02:01;13.50;99.90
17807;DHT22;9027;48.938;9.182;2022-10-17T04:03:34;13.50;99.90
17807;DHT22;9027;48.938;9.182;2022-10-17T04:05:07;13.50;99.90
17807;DHT22;9027;48.938;9.182;2022-10-17T04:06:39;13.50;99.90
17807;DHT22;9027;48.938;9.182;2022-10-17T04:08:12;13.40;99.90
17807;DHT22;9027;48.938;9.182;2022-10-17T04:10:08;13.40;99.90
17807;DHT22;9027;48.938;9.182;2022-10-17T04:11:40;13.40;99.90
17807;DHT22;9027;48.938;9.182;2022-10-17T04:13:12;13.40;99.90
17807;DHT22;9027;48.938;9.182;2022-10-17T04:14:44;13.40;99.90
17807;DHT22;9027;48.938;9.182;2022-10-17T04:16:16;13.40;99.90
17807;DHT22;9027;48.938;9.182;2022-10-17T04:18:03;13.40;99.90
17807;DHT22;9027;48.938;9.182;2022-10-17T04:19:35;13.40;99.90
17807;DHT22;9027;48.938;9.182;2022-10-17T04:21:07;13.40;99.90
17807;DHT22;9027;48.938;9.182;2022-10-17T04:22:38;13.30;99.90
17807;DHT22;9027;48.938;9.182;2022-10-17T04:24:11;13.30;99.90
17807;DHT22;9027;48.938;9.182;2022-10-17T04:25:55;13.30;99.90
17807;DHT22;9027;48.938;9.182;2022-10-17T04:27:27;13.30;99.90
17807;DHT22;9027;48.938;9.182;2022-10-17T04:28:59;13.30;99.90
17807;DHT22;9027;48.938;9.182;2022-10-17T04:30:30;13.30;99.90
17807;DHT22;9027;48.938;9.182;2022-10-17T04:32:02;13.30;99.90
17807;DHT22;9027;48.938;9.182;2022-10-17T04:33:41;13.30;99.90
17807;DHT22;9027;48.938;9.182;2022-10-17T04:35:13;13.30;99.90
17807;DHT22;9027;48.938;9.182;2022-10-17T04:36:49;13.30;99.90
17807;DHT22;9027;48.938;9.182;2022-10-17T04:38:22;13.30;99.90
17807;DHT22;9027;48.938;9.182;2022-10-17T04:39:55;13.30;99.90
17807;DHT22;9027;48.938;9.182;2022-10-17T04:41:27;13.30;99.90
17807;DHT22;9027;48.938;9.182;2022-10-17T04:42:58;13.30;99.90
17807;DHT22;9027;48.938;9.182;2022-10-17T04:44:38;13.30;99.90
17807;DHT22;9027;48.938;9.182;2022-10-17T04:46:12;13.30;99.90
17807;DHT22;9027;48.938;9.182;2022-10-17T04:47:43;13.30;99.90
17807;DHT22;9027;48.938;9.182;2022-10-17T04:49:15;13.30;99.90
17807;DHT22;9027;48.938;9.182;2022-10-17T04:50:53;13.30;99.90
17807;DHT22;9027;48.938;9.182;2022-10-17T04:52:48;13.30;99.90
17807;DHT22;9027;48.938;9.182;2022-10-17T04:54:20;13.30;99.90
17807;DHT22;9027;48.938;9.182;2022-10-17T04:55:59;13.30;99.90
17807;DHT22;9027;48.938;9.182;2022-10-17T04:57:33;13.30;99.90
17807;DHT22;9027;48.938;9.182;2022-10-17T04:59:27;13.30;99.90
17807;DHT22;9027;48.938;9.182;2022-10-17T05:01:20;13.30;99.90
17807;DHT22;9027;48.938;9.182;2022-10-17T05:02:56;13.30;99.90
17807;DHT22;9027;48.938;9.182;2022-10-17T05:04:28;13.30;99.90
17807;DHT22;9027;48.938;9.182;2022-10-17T05:06:03;13.30;99.90
17807;DHT22;9027;48.938;9.182;2022-10-17T05:07:38;13.20;99.90
17807;DHT22;9027;48.938;9.182;2022-10-17T05:09:21;13.30;99.90
17807;DHT22;9027;48.938;9.182;2022-10-17T05:10:53;13.30;99.90
17807;DHT22;9027;48.938;9.182;2022-10-17T05:12:26;13.30;99.90
17807;DHT22;9027;48.938;9.182;2022-10-17T05:14:00;13.30;99.90
17807;DHT22;9027;48.938;9.182;2022-10-17T05:15:35;13.30;99.90
17807;DHT22;9027;48.938;9.182;2022-10-17T05:17:07;13.30;99.90
17807;DHT22;9027;48.938;9.182;2022-10-17T05:18:39;13.30;99.90
17807;DHT22;9027;48.938;9.182;2022-10-17T05:20:11;13.30;99.90
17807;DHT22;9027;48.938;9.182;2022-10-17T05:21:44;13.30;99.90
17807;DHT22;9027;48.938;9.182;2022-10-17T05:23:16;13.30;99.90
17807;DHT22;9027;48.938;9.182;2022-10-17T05:24:48;13.30;99.90
17807;DHT22;9027;48.938;9.182;2022-10-17T05:26:21;13.30;99.90
17807;DHT22;9027;48.938;9.182;2022-10-17T05:27:55;13.30;99.90
17807;DHT22;9027;48.938;9.182;2022-10-17T05:29:26;13.30;99.90
17807;DHT22;9027;48.938;9.182;2022-10-17T05:31:08;13.40;99.90
17807;DHT22;9027;48.938;9.182;2022-10-17T05:32:40;13.40;99.90
17807;DHT22;9027;48.938;9.182;2022-10-17T05:34:13;13.40;99.90
17807;DHT22;9027;48.938;9.182;2022-10-17T05:35:46;13.40;99.90
17807;DHT22;9027;48.938;9.182;2022-10-17T05:37:18;13.40;99.90
17807;DHT22;9027;48.938;9.182;2022-10-17T05:38:54;13.40;99.90
17807;DHT22;9027;48.938;9.182;2022-10-17T05:40:26;13.40;99.90
17807;DHT22;9027;48.938;9.182;2022-10-17T05:41:58;13.40;99.90
17807;DHT22;9027;48.938;9.182;2022-10-17T05:43:33;13.40;99.90
17807;DHT22;9027;48.938;9.182;2022-10-17T05:45:06;13.50;99.90
17807;DHT22;9027;48.938;9.182;2022-10-17T05:46:38;13.50;99.90
17807;DHT22;9027;48.938;9.182;2022-10-17T05:48:10;13.50;99.90
17807;DHT22;9027;48.938;9.182;2022-10-17T05:49:42;13.50;99.90
17807;DHT22;9027;48.938;9.182;2022-10-17T05:51:14;13.50;99.90
17807;DHT22;9027;48.938;9.182;2022-10-17T05:52:46;13.50;99.90
17807;DHT22;9027;48.938;9.182;2022-10-17T05:54:19;13.50;99.90
17807;DHT22;9027;48.938;9.182;2022-10-17T05:55:55;13.50;99.90
17807;DHT22;9027;48.938;9.182;2022-10-17T05:57:27;13.50;99.90
17807;DHT22;9027;48.938;9.182;2022-10-17T05:59:01;13.50;99.90
17807;DHT22;9027;48.938;9.182;2022-10-17T06:01:01;13.50;99.90
17807;DHT22;9027;48.938;9.182;2022-10-17T06:02:34;13.60;99.90
17807;DHT22;9027;48.938;9.182;2022-10-17T06:04:06;13.60;99.90
17807;DHT22;9027;48.938;9.182;2022-10-17T06:05:38;13.60;99.90
17807;DHT22;9027;48.938;9.182;2022-10-17T06:07:10;13.60;99.90
17807;DHT22;9027;48.938;9.182;2022-10-17T06:08:41;13.60;99.90
17807;DHT22;9027;48.938;9.182;2022-10-17T06:10:16;13.60;99.90
17807;DHT22;9027;48.938;9.182;2022-10-17T06:11:48;13.60;99.90
17807;DHT22;9027;48.938;9.182;2022-10-17T06:13:20;13.60;99.90
17807;DHT22;9027;48.938;9.182;2022-10-17T06:14:56;13.70;99.90
17807;DHT22;9027;48.938;9.182;2022-10-17T06:16:29;13.70;99.90
17807;DHT22;9027;48.938;9.182;2022-10-17T06:18:01;13.70;99.90
17807;DHT22;9027;48.938;9.182;2022-10-17T06:19:33;13.80;99.90
17807;DHT22;9027;48.938;9.182;2022-10-17T06:21:09;13.80;99.90
17807;DHT22;9027;48.938;9.182;2022-10-17T06:22:45;13.80;99.90
17807;DHT22;9027;48.938;9.182;2022-10-17T06:24:23;13.90;99.90
17807;DHT22;9027;48.938;9.182;2022-10-17T06:26:00;13.90;99.90
17807;DHT22;9027;48.938;9.182;2022-10-17T06:27:33;13.90;99.90
17807;DHT22;9027;48.938;9.182;2022-10-17T06:29:05;13.90;99.90
17807;DHT22;9027;48.938;9.182;2022-10-17T06:30:42;14.00;99.90
17807;DHT22;9027;48.938;9.182;2022-10-17T06:32:15;14.00;99.90
17807;DHT22;9027;48.938;9.182;2022-10-17T06:33:50;14.10;99.90
17807;DHT22;9027;48.938;9.182;2022-10-17T06:35:22;14.20;99.90
17807;DHT22;9027;48.938;9.182;2022-10-17T06:36:54;14.30;99.90
17807;DHT22;9027;48.938;9.182;2022-10-17T06:38:26;14.30;99.90
17807;DHT22;9027;48.938;9.182;2022-10-17T06:40:00;14.60;99.90
17807;DHT22;9027;48.938;9.182;2022-10-17T06:41:33;15.00;99.90
17807;DHT22;9027;48.938;9.182;2022-10-17T06:43:09;15.40;99.90
17807;DHT22;9027;48.938;9.182;2022-10-17T06:45:01;15.90;99.90
17807;DHT22;9027;48.938;9.182;2022-10-17T06:46:58;16.60;99.90
17807;DHT22;9027;48.938;9.182;2022-10-17T06:48:31;17.10;99.90
17807;DHT22;9027;48.938;9.182;2022-10-17T06:50:28;17.50;99.90
17807;DHT22;9027;48.938;9.182;2022-10-17T06:52:19;18.20;99.90
17807;DHT22;9027;48.938;9.182;2022-10-17T06:54:14;19.20;99.90
17807;DHT22;9027;48.938;9.182;2022-10-17T06:56:07;20.20;99.90
17807;DHT22;9027;48.938;9.182;2022-10-17T06:58:02;21.20;99.90
17807;DHT22;9027;48.938;9.182;2022-10-17T07:00:00;22.20;99.90
17807;DHT22;9027;48.938;9.182;2022-10-17T07:01:38;23.00;99.90
17807;DHT22;9027;48.938;9.182;2022-10-17T07:03:13;23.40;99.90
17807;DHT22;9027;48.938;9.182;2022-10-17T07:04:45;24.10;99.90
17807;DHT22;9027;48.938;9.182;2022-10-17T07:06:17;24.70;99.90
17807;DHT22;9027;48.938;9.182;2022-10-17T07:07:50;25.10;99.90
17807;DHT22;9027;48.938;9.182;2022-10-17T07:09:22;25.50;99.90
17807;DHT22;9027;48.938;9.182;2022-10-17T07:10:55;26.00;99.90
17807;DHT22;9027;48.938;9.182;2022-10-17T07:12:27;26.50;99.90
17807;DHT22;9027;48.938;9.182;2022-10-17T07:13:59;26.90;99.90
17807;DHT22;9027;48.938;9.182;2022-10-17T07:15:31;27.10;99.90
17807;DHT22;9027;48.938;9.182;2022-10-17T07:17:03;27.50;99.90
17807;DHT22;9027;48.938;9.182;2022-10-17T07:18:37;27.80;99.90
17807;DHT22;9027;48.938;9.182;2022-10-17T07:20:10;27.90;99.90
17807;DHT22;9027;48.938;9.182;2022-10-17T07:21:43;28.10;99.90
17807;DHT22;9027;48.938;9.182;2022-10-17T07:23:15;28.40;99.30
17807;DHT22;9027;48.938;9.182;2022-10-17T07:24:48;28.50;99.00
17807;DHT22;9027;48.938;9.182;2022-10-17T07:26:29;28.90;97.80
17807;DHT22;9027;48.938;9.182;2022-10-17T07:28:01;29.10;97.30
17807;DHT22;9027;48.938;9.182;2022-10-17T07:29:33;29.30;96.40
17807;DHT22;9027;48.938;9.182;2022-10-17T07:31:14;29.40;95.30
17807;DHT22;9027;48.938;9.182;2022-10-17T07:32:46;29.20;95.60
17807;DHT22;9027;48.938;9.182;2022-10-17T07:34:20;28.90;95.70
17807;DHT22;9027;48.938;9.182;2022-10-17T07:35:58;28.90;96.20
17807;DHT22;9027;48.938;9.182;2022-10-17T07:37:30;29.20;95.60
17807;DHT22;9027;48.938;9.182;2022-10-17T07:39:03;29.60;94.90
17807;DHT22;9027;48.938;9.182;2022-10-17T07:40:36;29.80;93.50
17807;DHT22;9027;48.938;9.182;2022-10-17T07:42:09;30.00;93.70
17807;DHT22;9027;48.938;9.182;2022-10-17T07:43:41;30.30;93.60
17807;DHT22;9027;48.938;9.182;2022-10-17T07:45:13;30.60;93.30
17807;DHT22;9027;48.938;9.182;2022-10-17T07:46:46;30.20;92.00
17807;DHT22;9027;48.938;9.182;2022-10-17T07:48:19;30.10;92.20
17807;DHT22;9027;48.938;9.182;2022-10-17T07:49:53;30.00;92.60
17807;DHT22;9027;48.938;9.182;2022-10-17T07:51:26;30.10;92.60
17807;DHT22;9027;48.938;9.182;2022-10-17T07:52:58;29.70;92.70
17807;DHT22;9027;48.938;9.182;2022-10-17T07:54:30;29.70;93.10
17807;DHT22;9027;48.938;9.182;2022-10-17T07:56:04;30.00;93.10
17807;DHT22;9027;48.938;9.182;2022-10-17T07:57:36;30.20;92.40
17807;DHT22;9027;48.938;9.182;2022-10-17T07:59:09;30.20;92.30
17807;DHT22;9027;48.938;9.182;2022-10-17T08:00:41;30.10;92.60
17807;DHT22;9027;48.938;9.182;2022-10-17T08:02:19;30.10;92.30
17807;DHT22;9027;48.938;9.182;2022-10-17T08:03:52;29.80;93.10
17807;DHT22;9027;48.938;9.182;2022-10-17T08:05:25;29.80;93.80
17807;DHT22;9027;48.938;9.182;2022-10-17T08:06:59;29.90;93.00
17807;DHT22;9027;48.938;9.182;2022-10-17T08:08:30;29.80;93.00
17807;DHT22;9027;48.938;9.182;2022-10-17T08:10:03;29.80;93.10
17807;DHT22;9027;48.938;9.182;2022-10-17T08:11:35;29.80;92.70
17807;DHT22;9027;48.938;9.182;2022-10-17T08:13:07;29.70;93.30
17807;DHT22;9027;48.938;9.182;2022-10-17T08:14:40;29.50;93.70
17807;DHT22;9027;48.938;9.182;2022-10-17T08:16:12;29.50;93.90
17807;DHT22;9027;48.938;9.182;2022-10-17T08:17:44;29.30;94.20
17807;DHT22;9027;48.938;9.182;2022-10-17T08:19:16;29.20;93.60
17807;DHT22;9027;48.938;9.182;2022-10-17T08:20:49;29.10;93.90
17807;DHT22;9027;48.938;9.182;2022-10-17T08:22:21;29.00;94.60
17807;DHT22;9027;48.938;9.182;2022-10-17T08:23:53;28.80;94.70
17807;DHT22;9027;48.938;9.182;2022-10-17T08:25:25;28.60;95.10
17807;DHT22;9027;48.938;9.182;2022-10-17T08:26:57;28.50;95.20
17807;DHT22;9027;48.938;9.182;2022-10-17T08:28:30;28.40;95.20
17807;DHT22;9027;48.938;9.182;2022-10-17T08:30:02;28.30;96.00
17807;DHT22;9027;48.938;9.182;2022-10-17T08:31:34;28.10;96.20
17807;DHT22;9027;48.938;9.182;2022-10-17T08:33:06;28.00;96.50
17807;DHT22;9027;48.938;9.182;2022-10-17T08:34:38;27.70;96.80
17807;DHT22;9027;48.938;9.182;2022-10-17T08:36:13;27.50;97.00
17807;DHT22;9027;48.938;9.182;2022-10-17T08:37:45;27.40;97.00
17807;DHT22;9027;48.938;9.182;2022-10-17T08:39:17;27.10;97.80
17807;DHT22;9027;48.938;9.182;2022-10-17T08:40:49;27.00;98.20
17807;DHT22;9027;48.938;9.182;2022-10-17T08:42:43;27.00;98.10
17807;DHT22;9027;48.938;9.182;2022-10-17T08:44:24;26.70;98.30
17807;DHT22;9027;48.938;9.182;2022-10-17T08:46:01;26.60;99.90
17807;DHT22;9027;48.938;9.182;2022-10-17T08:47:36;26.50;99.80
17807;DHT22;9027;48.938;9.182;2022-10-17T08:49:13;26.30;99.90
17807;DHT22;9027;48.938;9.182;2022-10-17T08:50:48;26.60;99.90
17807;DHT22;9027;48.938;9.182;2022-10-17T08:52:31;26.50;99.90
17807;DHT22;9027;48.938;9.182;2022-10-17T08:54:11;26.40;99.90
17807;DHT22;9027;48.938;9.182;2022-10-17T08:55:45;26.40;99.90
17807;DHT22;9027;48.938;9.182;2022-10-17T08:57:18;26.50;99.90
17807;DHT22;9027;48.938;9.182;2022-10-17T08:58:50;26.50;99.90
17807;DHT22;9027;48.938;9.182;2022-10-17T09:00:22;26.50;99.90
17807;DHT22;9027;48.938;9.182;2022-10-17T09:02:00;26.50;99.90
17807;DHT22;9027;48.938;9.182;2022-10-17T09:03:44;26.30;99.90
17807;DHT22;9027;48.938;9.182;2022-10-17T09:07:24;26.30;99.90
17807;DHT22;9027;48.938;9.182;2022-10-17T09:09:07;26.20;99.90
17807;DHT22;9027;48.938;9.182;2022-10-17T09:10:51;26.20;99.90
17807;DHT22;9027;48.938;9.182;2022-10-17T09:12:32;26.00;99.90
17807;DHT22;9027;48.938;9.182;2022-10-17T09:14:17;25.80;99.90
17807;DHT22;9027;48.938;9.182;2022-10-17T09:16:04;25.60;99.90
17807;DHT22;9027;48.938;9.182;2022-10-17T09:17:46;25.70;99.90
17807;DHT22;9027;48.938;9.182;2022-10-17T09:19:24;25.80;99.90
17807;DHT22;9027;48.938;9.182;2022-10-17T09:21:00;25.60;99.90
17807;DHT22;9027;48.938;9.182;2022-10-17T09:22:37;25.80;99.90
17807;DHT22;9027;48.938;9.182;2022-10-17T09:24:16;25.90;99.90
17807;DHT22;9027;48.938;9.182;2022-10-17T09:25:52;25.90;99.90
17807;DHT22;9027;48.938;9.182;2022-10-17T09:27:31;26.00;99.90
17807;DHT22;9027;48.938;9.182;2022-10-17T09:29:13;25.90;99.90
17807;DHT22;9027;48.938;9.182;2022-10-17T09:30:48;26.00;99.90
17807;DHT22;9027;48.938;9.182;2022-10-17T09:32:24;26.10;99.90
17807;DHT22;9027;48.938;9.182;2022-10-17T09:33:58;26.10;99.90
17807;DHT22;9027;48.938;9.182;2022-10-17T09:35:31;26.00;99.90
17807;DHT22;9027;48.938;9.182;2022-10-17T09:37:11;25.90;99.90
17807;DHT22;9027;48.938;9.182;2022-10-17T09:38:47;25.70;99.90
17807;DHT22;9027;48.938;9.182;2022-10-17T09:40:23;25.50;99.90
17807;DHT22;9027;48.938;9.182;2022-10-17T09:41:57;25.50;99.90
17807;DHT22;9027;48.938;9.182;2022-10-17T09:43:30;25.50;99.90
17807;DHT22;9027;48.938;9.182;2022-10-17T09:45:12;25.40;99.90
17807;DHT22;9027;48.938;9.182;2022-10-17T09:47:02;24.70;99.90
17807;DHT22;9027;48.938;9.182;2022-10-17T09:48:38;24.70;99.90
17807;DHT22;9027;48.938;9.182;2022-10-17T09:50:16;24.80;99.90
17807;DHT22;9027;48.938;9.182;2022-10-17T09:51:51;25.10;99.90
17807;DHT22;9027;48.938;9.182;2022-10-17T09:53:28;25.20;99.90
17807;DHT22;9027;48.938;9.182;2022-10-17T09:55:05;25.00;99.90
17807;DHT22;9027;48.938;9.182;2022-10-17T09:56:55;24.50;99.90
17807;DHT22;9027;48.938;9.182;2022-10-17T09:58:39;24.30;99.90
17807;DHT22;9027;48.938;9.182;2022-10-17T10:00:20;24.10;99.90
17807;DHT22;9027;48.938;9.182;2022-10-17T10:02:08;24.20;99.90
17807;DHT22;9027;48.938;9.182;2022-10-17T10:03:41;24.40;99.90
17807;DHT22;9027;48.938;9.182;2022-10-17T10:05:15;24.00;99.90
17807;DHT22;9027;48.938;9.182;2022-10-17T10:07:01;24.00;99.90
17807;DHT22;9027;48.938;9.182;2022-10-17T10:08:35;24.20;99.90
17807;DHT22;9027;48.938;9.182;2022-10-17T10:10:23;24.00;99.90
17807;DHT22;9027;48.938;9.182;2022-10-17T10:11:56;24.20;99.90
17807;DHT22;9027;48.938;9.182;2022-10-17T10:18:59;24.80;99.90
17807;DHT22;9027;48.938;9.182;2022-10-17T10:20:34;24.60;99.90
17807;DHT22;9027;48.938;9.182;2022-10-17T10:22:16;24.70;99.90